createdAt,value
2022-08-25T00:02:20.198Z,89.79
2022-08-25T00:04:53.647Z,89.90
2022-08-25T00:07:24.475Z,89.89
2022-08-25T00:09:52.480Z,90.03
2022-08-25T00:12:21.083Z,90.18
2022-08-25T00:14:50.041Z,90.16
2022-08-25T00:17:17.982Z,90.30
2022-08-25T00:19:49.940Z,90.72
2022-08-25T00:22:19.643Z,90.82
2022-08-25T00:24:49.975Z,90.55
2022-08-25T00:27:19.059Z,90.86
2022-08-25T00:29:47.597Z,90.87
2022-08-25T00:32:15.699Z,90.88
2022-08-25T00:34:44.240Z,91.01
2022-08-25T00:37:24.958Z,91.13
2022-08-25T00:39:53.683Z,91.02
2022-08-25T00:42:21.652Z,91.16
2022-08-25T00:44:50.308Z,91.20
2022-08-25T00:47:18.631Z,91.38
2022-08-25T00:49:54.974Z,91.36
2022-08-25T00:52:30.246Z,91.14
2022-08-25T00:55:08.272Z,91.38
2022-08-25T00:57:45.177Z,91.50
2022-08-25T01:00:23.431Z,91.45
2022-08-25T01:02:51.708Z,91.80
2022-08-25T01:05:20.763Z,91.85
2022-08-25T01:07:50.433Z,91.99
2022-08-25T01:10:23.065Z,92.19
2022-08-25T01:12:54.916Z,92.18
2022-08-25T01:15:24.924Z,92.56
2022-08-25T01:17:55.857Z,92.57
2022-08-25T01:20:29.462Z,92.49
2022-08-25T01:22:59.701Z,92.13
2022-08-25T01:26:08.137Z,92.28
2022-08-25T01:28:39.302Z,92.08
2022-08-25T01:31:23.711Z,92.42
2022-08-25T01:33:53.550Z,92.30
2022-08-25T01:36:22.397Z,92.30
2022-08-25T01:38:50.839Z,92.43
2022-08-25T01:41:46.813Z,92.51
2022-08-25T01:44:18.537Z,92.64
2022-08-25T01:46:48.310Z,92.84
2022-08-25T01:49:16.422Z,92.86
2022-08-25T01:51:49.015Z,92.83
2022-08-25T01:54:17.578Z,92.80
2022-08-25T01:56:54.190Z,93.13
2022-08-25T01:59:24.214Z,92.95
2022-08-25T02:01:59.986Z,92.89
2022-08-25T02:04:32.541Z,93.26
2022-08-25T02:07:04.452Z,93.22
2022-08-25T02:09:34.092Z,93.47
2022-08-25T02:12:03.012Z,93.53
2022-08-25T02:14:36.820Z,93.28
2022-08-25T02:17:10.077Z,93.06
2022-08-25T02:19:38.804Z,93.29
2022-08-25T02:22:07.088Z,93.70
2022-08-25T02:24:37.878Z,93.49
2022-08-25T02:27:06.808Z,93.68
2022-08-25T02:29:38.909Z,93.83
2022-08-25T02:32:09.407Z,93.86
2022-08-25T02:34:41.656Z,93.97
2022-08-25T02:37:21.664Z,94.02
2022-08-25T02:39:50.486Z,94.21
2022-08-25T02:42:18.719Z,93.98
2022-08-25T02:44:48.489Z,94.24
2022-08-25T02:47:27.197Z,94.23
2022-08-25T02:49:55.932Z,94.34
2022-08-25T02:52:25.484Z,94.15
2022-08-25T02:54:53.406Z,94.20
2022-08-25T02:57:24.067Z,94.34
2022-08-25T02:59:52.114Z,94.50
2022-08-25T03:02:20.833Z,94.48
2022-08-25T03:04:49.720Z,94.36
2022-08-25T03:07:18.959Z,94.45
2022-08-25T03:09:54.110Z,94.63
2022-08-25T03:12:24.067Z,94.77
2022-08-25T03:14:55.869Z,94.85
2022-08-25T03:17:29.843Z,94.73
2022-08-25T03:19:58.732Z,94.64
2022-08-25T03:22:27.652Z,94.83
2022-08-25T03:25:22.162Z,94.66
2022-08-25T03:27:55.434Z,94.60
2022-08-25T03:30:27.294Z,94.94
2022-08-25T03:32:55.587Z,94.96
2022-08-25T03:35:23.917Z,94.80
2022-08-25T03:37:58.250Z,94.71
2022-08-25T03:40:27.595Z,94.76
2022-08-25T03:42:56.910Z,95.15
2022-08-25T03:45:33.281Z,95.02
2022-08-25T03:48:01.432Z,94.65
2022-08-25T03:50:30.315Z,94.99
2022-08-25T03:52:59.725Z,95.22
2022-08-25T03:55:28.715Z,95.55
2022-08-25T03:58:01.879Z,95.36
2022-08-25T04:00:31.389Z,95.58
2022-08-25T04:02:59.356Z,95.67
2022-08-25T04:05:28.706Z,95.35
2022-08-25T04:07:57.646Z,95.12
2022-08-25T04:10:25.508Z,95.16
2022-08-25T04:12:53.426Z,95.20
2022-08-25T04:15:21.959Z,95.18
2022-08-25T04:17:51.931Z,94.98
2022-08-25T04:20:22.887Z,94.94
2022-08-25T04:22:50.779Z,95.00
2022-08-25T04:25:21.071Z,95.16
2022-08-25T04:27:50.349Z,95.30
2022-08-25T04:30:19.322Z,95.15
2022-08-25T04:32:48.373Z,94.86
2022-08-25T04:35:38.084Z,94.82
2022-08-25T04:38:09.611Z,95.09
2022-08-25T04:40:40.939Z,95.31
2022-08-25T04:43:09.577Z,94.65
2022-08-25T04:45:40.010Z,94.68
2022-08-25T04:48:08.783Z,94.85
2022-08-25T04:50:39.887Z,94.90
2022-08-25T04:53:08.198Z,94.74
2022-08-25T04:55:48.102Z,94.43
2022-08-25T04:58:17.377Z,94.52
2022-08-25T05:00:51.552Z,94.51
2022-08-25T05:03:19.749Z,94.62
2022-08-25T05:05:48.235Z,94.46
2022-08-25T05:08:16.814Z,94.43
2022-08-25T05:10:44.715Z,94.48
2022-08-25T05:13:13.478Z,94.15
2022-08-25T05:15:51.069Z,94.36
2022-08-25T05:18:21.927Z,94.29
2022-08-25T05:20:51.616Z,93.98
2022-08-25T05:23:24.461Z,94.01
2022-08-25T05:25:53.858Z,94.11
2022-08-25T05:28:23.544Z,93.81
2022-08-25T05:30:51.544Z,93.72
2022-08-25T05:33:20.509Z,93.70
2022-08-25T05:35:49.061Z,93.68
2022-08-25T05:38:19.042Z,93.96
2022-08-25T05:40:52.604Z,93.53
2022-08-25T05:43:21.075Z,93.21
2022-08-25T05:45:49.318Z,93.61
2022-08-25T05:48:17.804Z,93.38
2022-08-25T05:50:55.086Z,92.95
2022-08-25T05:53:24.946Z,92.66
2022-08-25T05:55:54.467Z,92.76
2022-08-25T05:58:24.002Z,92.39
2022-08-25T06:00:52.336Z,92.09
2022-08-25T06:03:20.443Z,92.28
2022-08-25T06:05:49.049Z,92.22
2022-08-25T06:08:17.570Z,92.06
2022-08-25T06:10:45.580Z,92.01
2022-08-25T06:13:14.503Z,91.44
2022-08-25T06:15:42.775Z,91.29
2022-08-25T06:18:13.403Z,91.19
2022-08-25T06:20:41.464Z,91.06
2022-08-25T06:23:09.729Z,90.91
2022-08-25T06:25:37.784Z,90.91
2022-08-25T06:28:05.821Z,90.72
2022-08-25T06:30:34.487Z,90.87
2022-08-25T06:33:02.349Z,90.85
2022-08-25T06:35:30.198Z,90.58
2022-08-25T06:37:58.583Z,90.42
2022-08-25T06:40:27.948Z,89.97
2022-08-25T06:42:55.963Z,89.75
2022-08-25T06:45:25.155Z,89.31
2022-08-25T06:47:54.928Z,89.21
2022-08-25T06:50:22.689Z,89.22
2022-08-25T06:52:52.033Z,89.13
2022-08-25T06:55:20.133Z,89.17
2022-08-25T06:57:48.574Z,88.82
2022-08-25T07:00:17.938Z,88.44
2022-08-25T07:02:47.573Z,88.17
2022-08-25T07:05:33.416Z,87.97
2022-08-25T07:08:02.305Z,87.64
2022-08-25T07:10:30.264Z,87.78
2022-08-25T07:13:00.967Z,87.15
2022-08-25T07:15:30.173Z,87.20
2022-08-25T07:17:58.628Z,86.52
2022-08-25T07:20:26.650Z,86.45
2022-08-25T07:22:55.737Z,85.96
2022-08-25T07:25:25.455Z,85.03
2022-08-25T07:28:02.715Z,84.73
2022-08-25T07:30:31.859Z,84.46
2022-08-25T07:33:03.476Z,84.17
2022-08-25T07:35:36.524Z,83.97
2022-08-25T07:38:10.277Z,83.35
2022-08-25T07:40:43.779Z,82.97
2022-08-25T07:43:13.596Z,82.66
2022-08-25T07:45:49.184Z,82.20
2022-08-25T07:48:20.239Z,81.94
2022-08-25T07:50:50.542Z,81.63
2022-08-25T07:53:19.185Z,81.20
2022-08-25T07:55:47.893Z,81.40
2022-08-25T07:58:18.892Z,81.31
2022-08-25T08:04:30.640Z,80.54
2022-08-25T08:07:02.869Z,80.33
2022-08-25T08:09:33.959Z,80.18
2022-08-25T08:12:02.086Z,79.61
2022-08-25T08:14:30.557Z,79.14
2022-08-25T08:17:21.019Z,77.89
2022-08-25T08:19:51.156Z,77.03
2022-08-25T08:22:19.714Z,76.61
2022-08-25T08:24:54.726Z,75.52
2022-08-25T08:27:25.178Z,74.92
2022-08-25T08:29:55.232Z,74.29
2022-08-25T08:32:32.522Z,73.80
2022-08-25T08:35:19.469Z,73.69
2022-08-25T08:37:48.107Z,73.13
2022-08-25T08:40:21.279Z,72.63
2022-08-25T08:43:04.366Z,72.03
2022-08-25T08:45:50.348Z,71.44
2022-08-25T08:48:44.516Z,70.76
2022-08-25T08:51:39.360Z,69.89
2022-08-25T08:54:15.413Z,70.30
2022-08-25T08:57:03.112Z,70.12
2022-08-25T08:59:41.975Z,69.92
2022-08-25T09:02:39.449Z,69.99
2022-08-25T09:05:19.311Z,70.04
2022-08-25T09:08:07.585Z,69.77
2022-08-25T09:11:03.566Z,69.88
2022-08-25T09:14:05.376Z,69.63
2022-08-25T09:17:14.388Z,69.76
2022-08-25T09:19:48.306Z,69.82
2022-08-25T09:22:49.201Z,69.37
2022-08-25T09:25:53.518Z,68.59
2022-08-25T09:28:40.025Z,68.18
2022-08-25T09:31:19.893Z,68.22
2022-08-25T09:33:48.058Z,68.08
2022-08-25T09:36:16.514Z,67.87
2022-08-25T09:38:47.998Z,67.37
2022-08-25T09:41:36.162Z,67.33
2022-08-25T09:44:21.137Z,67.01
2022-08-25T09:47:14.751Z,67.07
2022-08-25T09:49:44.068Z,67.26
2022-08-25T09:52:28.366Z,66.94
2022-08-25T09:54:59.541Z,66.23
2022-08-25T09:57:41.618Z,66.29
2022-08-25T10:00:33.810Z,66.68
2022-08-25T10:03:13.923Z,65.56
2022-08-25T10:05:56.147Z,64.27
2022-08-25T10:08:36.466Z,63.62
2022-08-25T10:11:09.045Z,63.52
2022-08-25T10:13:42.077Z,63.14
2022-08-25T10:16:25.284Z,63.19
2022-08-25T10:19:08.376Z,62.69
2022-08-25T10:21:42.181Z,61.85
2022-08-25T10:24:16.329Z,61.35
2022-08-25T10:26:53.060Z,61.23
2022-08-25T10:29:58.062Z,61.14
2022-08-25T10:32:50.462Z,60.46
2022-08-25T10:35:29.208Z,60.28
2022-08-25T10:38:03.730Z,59.85
2022-08-25T10:41:01.279Z,59.35
2022-08-25T10:43:49.977Z,58.53
2022-08-25T10:46:25.633Z,57.50
2022-08-25T10:49:02.708Z,57.00
2022-08-25T10:51:55.699Z,56.81
2022-08-25T10:54:49.819Z,56.41
2022-08-25T10:57:30.560Z,56.77
2022-08-25T11:00:18.604Z,57.07
2022-08-25T11:03:05.050Z,56.64
2022-08-25T11:05:57.642Z,56.58
2022-08-25T11:08:36.678Z,56.57
2022-08-25T11:11:28.650Z,56.48
2022-08-25T11:14:10.979Z,56.24
2022-08-25T11:16:48.750Z,55.97
2022-08-25T11:19:27.100Z,55.73
2022-08-25T11:22:12.007Z,55.43
2022-08-25T11:25:10.389Z,55.66
2022-08-25T11:27:46.383Z,55.36
2022-08-25T11:30:17.495Z,55.81
2022-08-25T11:32:53.980Z,55.83
2022-08-25T11:35:53.764Z,56.10
2022-08-25T11:38:47.915Z,55.71
2022-08-25T11:41:53.445Z,55.70
2022-08-25T11:44:39.970Z,55.95
2022-08-25T11:47:46.252Z,55.91
2022-08-25T11:50:32.878Z,55.93
2022-08-25T11:53:17.338Z,55.38
2022-08-25T11:55:45.627Z,55.27
2022-08-25T11:58:38.198Z,54.30
2022-08-25T12:01:32.719Z,53.69
2022-08-25T12:04:21.070Z,53.31
2022-08-25T12:07:07.005Z,53.31
2022-08-25T12:09:55.513Z,52.68
2022-08-25T12:12:44.435Z,52.74
2022-08-25T12:15:31.689Z,52.67
2022-08-25T12:18:45.907Z,51.50
2022-08-25T12:21:31.468Z,51.43
2022-08-25T12:24:02.950Z,51.16
2022-08-25T12:26:46.006Z,49.78
2022-08-25T12:29:23.594Z,50.14
2022-08-25T12:32:04.588Z,49.59
2022-08-25T12:34:54.208Z,49.58
2022-08-25T12:37:25.347Z,49.73
2022-08-25T12:40:05.801Z,49.87
2022-08-25T12:42:44.119Z,50.14
2022-08-25T12:45:32.637Z,49.40
2022-08-25T12:48:25.338Z,49.40
2022-08-25T12:51:20.643Z,49.80
2022-08-25T12:54:10.627Z,50.15
2022-08-25T12:56:47.674Z,49.96
2022-08-25T12:59:35.486Z,49.28
2022-08-25T13:02:27.946Z,48.63
2022-08-25T13:05:35.556Z,47.49
2022-08-25T13:08:47.030Z,47.15
2022-08-25T13:11:30.269Z,46.83
2022-08-25T13:14:20.314Z,46.10
2022-08-25T13:16:55.279Z,45.69
2022-08-25T13:19:24.356Z,45.59
2022-08-25T13:21:54.658Z,45.25
2022-08-25T13:24:28.191Z,44.61
2022-08-25T13:26:59.465Z,44.62
2022-08-25T13:29:35.079Z,44.50
2022-08-25T13:32:14.385Z,44.83
2022-08-25T13:34:44.155Z,44.75
2022-08-25T13:37:30.193Z,44.06
2022-08-25T13:40:11.201Z,43.54
2022-08-25T13:42:42.582Z,42.93
2022-08-25T13:45:19.615Z,42.86
2022-08-25T13:47:49.460Z,43.05
2022-08-25T13:50:27.374Z,42.60
2022-08-25T13:52:59.590Z,42.96
2022-08-25T13:55:50.782Z,42.61
2022-08-25T13:58:24.882Z,42.34
2022-08-25T14:01:32.288Z,42.06
2022-08-25T14:04:35.399Z,41.71
2022-08-25T14:07:07.433Z,41.12
2022-08-25T14:09:49.896Z,41.12
2022-08-25T14:12:31.732Z,40.77
2022-08-25T14:15:17.865Z,40.86
2022-08-25T14:18:00.824Z,40.99
2022-08-25T14:20:31.829Z,40.85
2022-08-25T14:23:05.834Z,41.16
2022-08-25T14:25:40.442Z,41.21
2022-08-25T14:28:15.449Z,41.06
2022-08-25T14:30:51.911Z,40.69
2022-08-25T14:33:28.159Z,40.33
2022-08-25T14:35:59.020Z,40.40
2022-08-25T14:38:27.134Z,40.48
2022-08-25T14:40:59.365Z,40.31
2022-08-25T14:43:32.023Z,39.78
2022-08-25T14:46:08.060Z,39.99
2022-08-25T14:48:42.291Z,40.00
2022-08-25T14:51:12.063Z,39.65
2022-08-25T14:53:41.083Z,39.71
2022-08-25T14:56:10.241Z,40.21
2022-08-25T14:58:51.073Z,40.72
2022-08-25T15:01:28.938Z,40.81
2022-08-25T15:04:04.878Z,40.90
2022-08-25T15:06:35.713Z,40.91
2022-08-25T15:09:11.015Z,40.86
2022-08-25T15:11:45.611Z,40.09
2022-08-25T15:14:15.799Z,39.60
2022-08-25T15:16:50.931Z,39.37
2022-08-25T15:19:23.479Z,39.06
2022-08-25T15:21:52.136Z,38.96
2022-08-25T15:24:22.909Z,38.89
2022-08-25T15:26:58.690Z,38.58
2022-08-25T15:29:30.165Z,38.42
2022-08-25T15:31:59.785Z,38.56
2022-08-25T15:34:42.304Z,37.68
2022-08-25T15:37:13.090Z,37.83
2022-08-25T15:39:43.194Z,38.37
2022-08-25T15:42:14.160Z,38.38
2022-08-25T15:44:43.280Z,37.93
2022-08-25T15:47:22.953Z,37.40
2022-08-25T15:49:54.556Z,37.40
2022-08-25T15:52:22.495Z,37.88
2022-08-25T15:54:50.504Z,38.20
2022-08-25T15:57:24.490Z,38.33
2022-08-25T15:59:53.330Z,38.43
2022-08-25T16:02:22.223Z,38.86
2022-08-25T16:04:51.550Z,39.01
2022-08-25T16:07:20.837Z,39.41
2022-08-25T16:09:50.568Z,39.33
2022-08-25T16:12:18.842Z,39.10
2022-08-25T16:14:49.198Z,39.32
2022-08-25T16:17:20.175Z,39.41
2022-08-25T16:19:48.338Z,39.51
2022-08-25T16:22:16.781Z,39.92
2022-08-25T16:24:45.303Z,40.03
2022-08-25T16:27:14.192Z,39.83
2022-08-25T16:29:44.481Z,39.44
2022-08-25T16:32:14.087Z,39.34
2022-08-25T16:34:44.430Z,39.50
2022-08-25T16:37:13.634Z,39.94
2022-08-25T16:39:45.397Z,40.07
2022-08-25T16:42:13.578Z,40.26
2022-08-25T16:44:41.443Z,40.51
2022-08-25T16:47:09.670Z,40.95
2022-08-25T16:49:42.567Z,41.18
2022-08-25T16:52:31.117Z,41.53
2022-08-25T16:55:15.257Z,41.59
2022-08-25T16:57:48.664Z,41.80
2022-08-25T17:00:21.983Z,42.13
2022-08-25T17:02:52.139Z,42.69
2022-08-25T17:05:20.259Z,42.79
2022-08-25T17:08:08.583Z,43.02
2022-08-25T17:10:39.498Z,43.41
2022-08-25T17:13:07.525Z,44.18
2022-08-25T17:15:38.823Z,44.68
2022-08-25T17:18:07.985Z,45.06
2022-08-25T17:20:39.736Z,45.56
2022-08-25T17:23:12.699Z,45.85
2022-08-25T17:25:43.233Z,46.24
2022-08-25T17:28:13.033Z,46.69
2022-08-25T17:30:41.726Z,47.21
2022-08-25T17:33:14.230Z,47.94
2022-08-25T17:35:51.425Z,48.61
2022-08-25T17:38:27.468Z,49.07
2022-08-25T17:40:59.494Z,49.48
2022-08-25T17:43:29.082Z,49.91
2022-08-25T17:45:57.720Z,50.30
2022-08-25T17:48:26.930Z,50.68
2022-08-25T17:50:56.210Z,51.38
2022-08-25T17:53:24.562Z,51.90
2022-08-25T17:56:01.614Z,52.28
2022-08-25T17:58:30.262Z,52.70
2022-08-25T18:00:59.083Z,53.35
2022-08-25T18:03:27.778Z,53.99
2022-08-25T18:05:57.455Z,54.60
2022-08-25T18:08:32.207Z,55.25
2022-08-25T18:11:05.004Z,55.74
2022-08-25T18:13:33.371Z,56.22
2022-08-25T18:16:01.743Z,56.71
2022-08-25T18:18:30.982Z,57.12
2022-08-25T18:20:58.660Z,57.47
2022-08-25T18:23:27.683Z,58.19
2022-08-25T18:26:00.833Z,58.47
2022-08-25T18:28:31.021Z,58.63
2022-08-25T18:30:58.935Z,59.15
2022-08-25T18:33:29.972Z,59.58
2022-08-25T18:35:58.289Z,59.84
2022-08-25T18:38:45.060Z,60.33
2022-08-25T18:41:14.007Z,60.48
2022-08-25T18:43:42.268Z,60.71
2022-08-25T18:46:11.147Z,61.26
2022-08-25T18:48:38.848Z,61.74
2022-08-25T18:51:10.483Z,61.97
2022-08-25T18:53:50.439Z,62.24
2022-08-25T18:56:19.477Z,62.46
2022-08-25T18:58:47.989Z,63.08
2022-08-25T19:01:16.947Z,63.42
2022-08-25T19:03:46.562Z,64.22
2022-08-25T19:06:14.733Z,65.05
2022-08-25T19:08:43.689Z,65.29
2022-08-25T19:11:12.312Z,65.75
2022-08-25T19:13:40.700Z,66.06
2022-08-25T19:16:17.770Z,66.63
2022-08-25T19:18:52.136Z,67.08
2022-08-25T19:21:24.463Z,67.64
2022-08-25T19:23:53.273Z,68.24
2022-08-25T19:26:22.385Z,68.90
2022-08-25T19:28:52.810Z,69.10
2022-08-25T19:31:22.747Z,69.62
2022-08-25T19:33:52.823Z,69.61
2022-08-25T19:36:31.300Z,69.77
2022-08-25T19:39:01.287Z,70.01
2022-08-25T19:41:31.462Z,70.18
2022-08-25T19:44:00.464Z,70.40
2022-08-25T19:46:35.293Z,70.56
2022-08-25T19:49:09.221Z,70.73
2022-08-25T19:51:39.789Z,70.79
2022-08-25T19:54:10.216Z,70.91
2022-08-25T19:56:43.820Z,70.87
2022-08-25T19:59:26.038Z,70.70
2022-08-25T20:01:54.300Z,70.96
2022-08-25T20:04:24.533Z,70.77
2022-08-25T20:06:55.464Z,70.99
2022-08-25T20:09:39.383Z,71.02
2022-08-25T20:12:10.882Z,71.18
2022-08-25T20:14:39.750Z,71.35
2022-08-25T20:17:24.041Z,71.75
2022-08-25T20:19:56.537Z,72.18
2022-08-25T20:22:27.246Z,72.69
2022-08-25T20:24:58.519Z,73.10
2022-08-25T20:27:32.952Z,73.64
2022-08-25T20:30:04.001Z,74.05
2022-08-25T20:32:33.858Z,74.32
2022-08-25T20:35:02.686Z,74.65
2022-08-25T20:37:31.569Z,75.09
2022-08-25T20:40:02.199Z,75.42
2022-08-25T20:42:30.415Z,75.85
2022-08-25T20:44:59.628Z,76.35
2022-08-25T20:47:30.254Z,76.90
2022-08-25T20:50:02.235Z,77.19
2022-08-25T20:52:34.675Z,77.45
2022-08-25T20:55:05.012Z,77.89
2022-08-25T20:57:33.436Z,78.25
2022-08-25T21:00:03.078Z,78.39
2022-08-25T21:02:33.037Z,78.81
2022-08-25T21:05:04.808Z,79.02
2022-08-25T21:07:35.732Z,79.01
2022-08-25T21:10:14.352Z,79.69
2022-08-25T21:12:45.220Z,79.86
2022-08-25T21:15:18.041Z,79.96
2022-08-25T21:17:51.376Z,79.78
2022-08-25T21:20:23.748Z,79.96
2022-08-25T21:22:53.443Z,80.19
2022-08-25T21:25:22.397Z,80.40
2022-08-25T21:27:50.887Z,80.82
2022-08-25T21:30:19.118Z,81.01
2022-08-25T21:32:53.544Z,81.10
2022-08-25T21:35:23.843Z,81.54
2022-08-25T21:37:53.809Z,81.61
2022-08-25T21:40:23.219Z,81.96
2022-08-25T21:42:52.655Z,82.16
2022-08-25T21:45:21.713Z,82.16
2022-08-25T21:47:52.555Z,82.53
2022-08-25T21:50:20.894Z,82.95
2022-08-25T21:52:54.511Z,82.90
2022-08-25T21:55:23.678Z,82.95
2022-08-25T21:57:53.206Z,82.70
2022-08-25T22:00:24.838Z,82.85
2022-08-25T22:02:53.661Z,82.94
2022-08-25T22:05:22.476Z,83.35
2022-08-25T22:07:53.093Z,83.49
2022-08-25T22:10:24.721Z,83.51
2022-08-25T22:12:53.276Z,83.82
2022-08-25T22:15:21.273Z,83.53
2022-08-25T22:17:49.549Z,83.66
2022-08-25T22:20:18.923Z,83.87
2022-08-25T22:22:48.106Z,83.79
2022-08-25T22:25:16.272Z,84.18
2022-08-25T22:27:45.505Z,84.53
2022-08-25T22:30:14.872Z,84.73
2022-08-25T22:32:43.352Z,84.93
2022-08-25T22:35:14.240Z,85.19
2022-08-25T22:37:43.342Z,85.20
2022-08-25T22:40:13.029Z,85.21
2022-08-25T22:42:47.805Z,85.27
2022-08-25T22:45:17.155Z,85.34
2022-08-25T22:47:45.563Z,85.45
2022-08-25T22:50:18.123Z,85.46
2022-08-25T22:52:48.111Z,85.52
2022-08-25T22:55:17.039Z,85.53
2022-08-25T22:57:46.239Z,85.83
2022-08-25T23:00:17.546Z,86.34
2022-08-25T23:02:47.102Z,86.71
2022-08-25T23:05:15.483Z,86.78
2022-08-25T23:07:43.620Z,86.83
2022-08-25T23:10:12.596Z,86.69
2022-08-25T23:12:45.330Z,87.01
2022-08-25T23:15:16.551Z,87.18
2022-08-25T23:17:44.943Z,87.44
2022-08-25T23:20:32.699Z,87.48
2022-08-25T23:23:01.648Z,87.68
2022-08-25T23:25:30.539Z,87.48
2022-08-25T23:27:59.703Z,87.76
2022-08-25T23:30:30.899Z,87.82
2022-08-25T23:32:59.542Z,88.16
2022-08-25T23:35:45.470Z,88.45
2022-08-25T23:38:13.894Z,88.36
2022-08-25T23:40:44.367Z,88.48
2022-08-25T23:43:13.830Z,88.24
2022-08-25T23:45:42.014Z,88.05
2022-08-25T23:48:10.242Z,88.04
2022-08-25T23:50:47.255Z,88.24
2022-08-25T23:53:23.778Z,88.80
2022-08-25T23:55:56.266Z,88.92
2022-08-25T23:58:25.910Z,89.19
